Terminal Aerodrome Forecast
Issued by NWS

Home | Current Version | Previous Version | Text Only | Print | Product List | Glossary On
Versions: 1 2 3 4 5 6 7 8 9 10 11 12 13 14 15 16 17
000
FTUS44 KEPZ 131100
TAFLRU
TAF
KLRU 131125Z 1312/1412 14007KT P6SM FEW080 SCT250
     FM132200 10009KT P6SM VCTS SCT080CB SCT140 SCT250
     FM140300 07008KT P6SM FEW080 SCT140 BKN250=

USA.gov is the U.S. government's official web portal to all federal, state and local government web resources and services.